Time;durP1;ratioP1;P1;durP2;ratioP2;P2;SDS_P1;SDS_P2;PMS_P1;PMS_P2;Temp;Humidity;BMP_temperature;BMP_pressure;BME280_temperature;BME280_humidity;BME280_pressure;Samples;Min_cycle;Max_cycle;Signal;HPM_P1;HPM_P2
2022/04/17 00:00:01;;;;;;;20.88;17.65;;;9.70;99.90;;;;;;5028046;28;20136;-60
2022/04/17 00:02:33;;;;;;;20.40;17.38;;;9.70;99.90;;;;;;5026497;28;20045;-60
2022/04/17 00:05:01;;;;;;;22.00;16.38;;;9.70;99.90;;;;;;5030199;28;20446;-61
2022/04/17 00:07:28;;;;;;;19.00;16.38;;;9.70;99.90;;;;;;5028477;28;20361;-60
2022/04/17 00:09:56;;;;;;;18.67;15.88;;;9.70;99.90;;;;;;5000011;28;21554;-62
2022/04/17 00:12:26;;;;;;;19.58;16.13;;;9.70;99.90;;;;;;5035310;28;20207;-60
2022/04/17 00:14:54;;;;;;;17.92;15.93;;;9.60;99.90;;;;;;5032903;28;20100;-61
2022/04/17 00:17:21;;;;;;;19.95;17.42;;;9.60;99.90;;;;;;5028174;28;20082;-61
2022/04/17 00:19:48;;;;;;;18.73;16.60;;;9.60;99.90;;;;;;5025611;28;20128;-61
2022/04/17 00:22:14;;;;;;;19.55;16.48;;;9.60;99.90;;;;;;5025579;28;20056;-61
2022/04/17 00:24:42;;;;;;;21.25;17.35;;;9.50;99.90;;;;;;5026708;28;20132;-60
2022/04/17 00:27:09;;;;;;;20.67;16.48;;;9.50;99.90;;;;;;5030960;28;20141;-61
2022/04/17 00:29:35;;;;;;;22.05;18.20;;;9.50;99.90;;;;;;5031658;28;20451;-61
2022/04/17 00:32:03;;;;;;;18.58;15.65;;;9.50;99.90;;;;;;5025955;28;20156;-61
2022/04/17 00:34:30;;;;;;;21.02;17.23;;;9.50;99.90;;;;;;5027414;28;20099;-61
2022/04/17 00:36:59;;;;;;;20.33;16.40;;;9.50;99.90;;;;;;5027382;28;20370;-61
2022/04/17 00:39:26;;;;;;;21.23;16.98;;;9.50;99.90;;;;;;5034900;28;20419;-61
2022/04/17 00:41:56;;;;;;;20.75;16.50;;;9.50;99.90;;;;;;5033232;28;20041;-61
2022/04/17 00:44:23;;;;;;;19.80;16.77;;;9.40;99.90;;;;;;5025898;28;20404;-61
2022/04/17 00:46:50;;;;;;;21.55;17.17;;;9.40;99.90;;;;;;5030931;28;20158;-61
2022/04/17 00:49:16;;;;;;;19.08;16.75;;;9.30;99.90;;;;;;5028773;28;20041;-61
2022/04/17 00:51:43;;;;;;;20.10;17.08;;;9.30;99.90;;;;;;5033228;28;20132;-61
2022/04/17 00:54:12;;;;;;;20.13;16.67;;;9.30;99.90;;;;;;5033593;28;20037;-61
2022/04/17 00:56:38;;;;;;;19.13;17.05;;;9.20;99.90;;;;;;5029469;28;20045;-61
2022/04/17 00:59:06;;;;;;;20.63;16.55;;;9.20;99.90;;;;;;5025897;28;20080;-60
2022/04/17 01:01:33;;;;;;;22.55;18.48;;;9.20;99.90;;;;;;5025091;28;20080;-62
2022/04/17 01:04:00;;;;;;;20.60;17.27;;;9.20;99.90;;;;;;5025357;28;20521;-61
2022/04/17 01:06:27;;;;;;;20.90;17.80;;;9.20;99.90;;;;;;5024448;28;20080;-61
2022/04/17 01:08:53;;;;;;;20.95;18.30;;;9.20;99.90;;;;;;5027816;28;20156;-61
2022/04/17 01:11:20;;;;;;;19.83;17.17;;;9.20;99.90;;;;;;5008814;28;20155;-61
2022/04/17 01:13:47;;;;;;;19.83;16.90;;;9.20;99.90;;;;;;5030856;28;20115;-61
2022/04/17 01:16:16;;;;;;;21.83;17.42;;;9.20;99.90;;;;;;5032049;28;20068;-61
2022/04/17 01:18:56;;;;;;;21.45;17.38;;;9.10;99.90;;;;;;5026368;28;20111;-61
2022/04/17 01:21:26;;;;;;;20.67;16.23;;;9.10;99.90;;;;;;5025614;28;20168;-61
2022/04/17 01:26:58;;;;;;;20.48;16.98;;;9.10;99.90;;;;;;5028913;28;20188;-61
2022/04/17 01:29:26;;;;;;;22.23;17.63;;;9.10;99.90;;;;;;5033499;28;20229;-61
2022/04/17 01:31:53;;;;;;;21.40;17.00;;;9.10;99.90;;;;;;5027416;28;20069;-61
2022/04/17 01:34:21;;;;;;;19.13;16.73;;;9.00;99.90;;;;;;5023497;28;20223;-61
2022/04/17 01:36:49;;;;;;;21.92;18.10;;;9.00;99.90;;;;;;5027725;28;20084;-61
2022/04/17 01:39:16;;;;;;;24.27;18.58;;;9.00;99.90;;;;;;5028646;28;20632;-61
2022/04/17 01:41:43;;;;;;;20.15;16.83;;;9.00;99.90;;;;;;5026748;28;20136;-61
2022/04/17 01:44:09;;;;;;;21.23;17.85;;;9.00;99.90;;;;;;5024034;28;20167;-61
2022/04/17 01:46:36;;;;;;;22.30;16.92;;;9.00;99.90;;;;;;5027600;28;20069;-61
2022/04/17 01:49:04;;;;;;;21.40;17.40;;;8.90;99.90;;;;;;5027320;28;20135;-61
2022/04/17 01:51:37;;;;;;;20.80;17.50;;;8.90;99.90;;;;;;5027765;28;20068;-61
2022/04/17 01:54:17;;;;;;;20.92;17.17;;;8.90;99.90;;;;;;5032517;28;20118;-61
2022/04/17 01:56:44;;;;;;;19.88;17.02;;;8.90;99.90;;;;;;5034378;28;20077;-62
2022/04/17 01:59:12;;;;;;;22.70;18.80;;;8.90;99.90;;;;;;5033726;28;20140;-61
2022/04/17 02:01:39;;;;;;;21.02;17.08;;;8.90;99.90;;;;;;5038072;28;20110;-61
2022/04/17 02:04:07;;;;;;;22.52;17.55;;;8.80;99.90;;;;;;5032133;28;20077;-62
2022/04/17 02:06:34;;;;;;;23.33;17.90;;;8.80;99.90;;;;;;5032071;28;20140;-61
2022/04/17 02:09:01;;;;;;;23.83;19.05;;;8.80;99.90;;;;;;5032876;28;20135;-61
2022/04/17 02:11:28;;;;;;;22.02;18.15;;;8.80;99.90;;;;;;5032739;28;20072;-62
2022/04/17 02:13:54;;;;;;;21.92;17.40;;;8.70;99.90;;;;;;5039486;28;20511;-61
2022/04/17 02:16:21;;;;;;;23.75;17.67;;;8.70;99.90;;;;;;5031473;28;20148;-62
2022/04/17 02:18:48;;;;;;;23.38;18.27;;;8.70;99.90;;;;;;5041484;28;20053;-61
2022/04/17 02:21:16;;;;;;;23.25;18.27;;;8.70;99.90;;;;;;5034281;28;20053;-61
2022/04/17 02:23:43;;;;;;;23.85;18.83;;;8.70;99.90;;;;;;5035628;28;20081;-61
2022/04/17 02:26:10;;;;;;;23.60;18.83;;;8.70;99.90;;;;;;5033377;28;20051;-62
2022/04/17 02:28:38;;;;;;;24.90;19.05;;;8.60;99.90;;;;;;5036226;28;20041;-61
2022/04/17 02:31:04;;;;;;;22.15;18.35;;;8.60;99.90;;;;;;5039808;28;20184;-61
2022/04/17 02:33:31;;;;;;;22.98;19.17;;;8.60;99.90;;;;;;5034635;28;20131;-61
2022/04/17 02:35:58;;;;;;;24.65;18.88;;;8.60;99.90;;;;;;5033818;28;20145;-61
2022/04/17 02:38:25;;;;;;;21.05;18.33;;;8.60;99.90;;;;;;5033596;28;20588;-62
2022/04/17 02:40:53;;;;;;;25.77;19.40;;;8.60;99.90;;;;;;5033665;28;20236;-64
2022/04/17 02:43:20;;;;;;;24.27;19.35;;;8.60;99.90;;;;;;5037451;28;20076;-65
2022/04/17 02:45:47;;;;;;;22.25;17.65;;;8.60;99.90;;;;;;5039756;28;20049;-61
2022/04/17 02:48:15;;;;;;;21.88;18.00;;;8.50;99.90;;;;;;5038570;28;20061;-59
2022/04/17 02:50:42;;;;;;;22.15;17.52;;;8.50;99.90;;;;;;5040209;28;20163;-61
2022/04/17 02:53:08;;;;;;;20.98;16.58;;;8.40;99.90;;;;;;5040353;28;20196;-62
2022/04/17 02:55:35;;;;;;;19.92;16.30;;;8.40;99.90;;;;;;5032906;28;20075;-61
2022/04/17 02:58:02;;;;;;;22.58;18.15;;;8.40;99.90;;;;;;5036266;28;20136;-61
2022/04/17 03:00:30;;;;;;;22.27;18.38;;;8.30;99.90;;;;;;5039944;28;20100;-62
2022/04/17 03:05:42;;;;;;;20.73;16.52;;;8.30;99.90;;;;;;5039629;28;20095;-62
2022/04/17 03:08:14;;;;;;;22.00;17.08;;;8.30;99.90;;;;;;5035379;28;20053;-61
2022/04/17 03:10:48;;;;;;;21.17;16.00;;;8.30;99.90;;;;;;5037241;28;20463;-61
2022/04/17 03:13:15;;;;;;;22.42;16.92;;;8.20;99.90;;;;;;5031673;28;20492;-61
2022/04/17 03:15:42;;;;;;;20.58;15.90;;;8.20;99.90;;;;;;5034857;28;20045;-60
2022/04/17 03:18:09;;;;;;;22.13;17.55;;;8.20;99.90;;;;;;5031544;28;20132;-60
2022/04/17 03:20:35;;;;;;;23.52;18.70;;;8.20;99.90;;;;;;5029725;28;20064;-62
2022/04/17 03:23:03;;;;;;;23.38;17.38;;;8.20;99.90;;;;;;5032801;28;20060;-60
2022/04/17 03:25:30;;;;;;;23.50;18.02;;;8.10;99.90;;;;;;5032086;28;20136;-60
2022/04/17 03:27:57;;;;;;;25.40;18.90;;;8.10;99.90;;;;;;5031251;28;20073;-61
2022/04/17 03:30:24;;;;;;;23.83;18.48;;;8.10;99.90;;;;;;5030822;28;20049;-61
2022/04/17 03:32:51;;;;;;;23.40;18.10;;;8.10;99.90;;;;;;5033445;28;20076;-61
2022/04/17 03:35:18;;;;;;;23.45;16.70;;;8.10;99.90;;;;;;5027944;28;20167;-61
2022/04/17 03:37:44;;;;;;;21.80;17.00;;;8.10;99.90;;;;;;5033532;28;20128;-61
2022/04/17 03:40:13;;;;;;;22.98;18.40;;;8.10;99.90;;;;;;5030089;28;20053;-61
2022/04/17 03:42:39;;;;;;;21.27;16.83;;;8.10;99.90;;;;;;5029773;28;20224;-61
2022/04/17 03:45:11;;;;;;;22.20;17.63;;;8.10;99.90;;;;;;5029669;28;20112;-61
2022/04/17 03:47:38;;;;;;;23.00;18.00;;;8.10;99.90;;;;;;5032038;28;20056;-61
2022/04/17 03:50:05;;;;;;;21.75;18.35;;;8.10;99.90;;;;;;5035197;28;20084;-60
2022/04/17 03:52:42;;;;;;;23.45;18.15;;;8.00;99.90;;;;;;5035805;28;20673;-61
2022/04/17 03:55:09;;;;;;;21.58;16.85;;;8.00;99.90;;;;;;5030269;28;20861;-61
2022/04/17 03:57:36;;;;;;;24.65;18.10;;;8.00;99.90;;;;;;5029561;28;20132;-61
2022/04/17 04:00:04;;;;;;;23.05;17.92;;;7.90;99.90;;;;;;5029769;28;20485;-61
2022/04/17 04:02:31;;;;;;;23.42;17.13;;;7.90;99.90;;;;;;5026136;28;20505;-60
2022/04/17 04:04:58;;;;;;;23.38;18.70;;;7.90;99.90;;;;;;5035928;28;20052;-61
2022/04/17 04:07:25;;;;;;;22.63;16.83;;;7.90;99.90;;;;;;5032942;28;20080;-61
2022/04/17 04:09:52;;;;;;;22.30;17.25;;;7.90;99.90;;;;;;5035979;28;20143;-61
2022/04/17 04:12:19;;;;;;;22.90;17.20;;;7.90;99.90;;;;;;5036698;28;20079;-61
2022/04/17 04:14:46;;;;;;;22.52;16.08;;;7.90;99.90;;;;;;5025660;28;20073;-61
2022/04/17 04:17:12;;;;;;;21.98;16.70;;;7.90;99.90;;;;;;5029526;28;20405;-61
2022/04/17 04:19:39;;;;;;;21.83;16.42;;;7.90;99.90;;;;;;5027809;28;20171;-62
2022/04/17 04:22:06;;;;;;;21.40;17.08;;;7.80;99.90;;;;;;5029099;28;20077;-61
2022/04/17 04:24:33;;;;;;;19.30;14.98;;;7.80;99.90;;;;;;5029165;28;20083;-61
2022/04/17 04:29:45;;;;;;;18.40;14.70;;;7.70;99.90;;;;;;5036162;28;20095;-61
2022/04/17 04:32:12;;;;;;;18.55;14.68;;;7.70;99.90;;;;;;5028412;28;20042;-61
2022/04/17 04:34:38;;;;;;;18.52;14.85;;;7.70;99.90;;;;;;5034841;28;20053;-61
2022/04/17 04:37:06;;;;;;;18.50;15.07;;;7.70;99.90;;;;;;5032751;28;20151;-61
2022/04/17 04:39:33;;;;;;;18.00;15.13;;;7.70;99.90;;;;;;5036097;28;20052;-61
2022/04/17 04:42:00;;;;;;;18.90;13.85;;;7.70;99.90;;;;;;5035121;28;20442;-61
2022/04/17 04:44:26;;;;;;;19.27;14.45;;;7.60;99.90;;;;;;5031591;28;20073;-61
2022/04/17 04:46:54;;;;;;;19.48;15.32;;;7.60;99.90;;;;;;5026071;28;20049;-61
2022/04/17 04:49:30;;;;;;;19.77;16.10;;;7.60;99.90;;;;;;5029146;28;20270;-60
2022/04/17 04:52:01;;;;;;;20.23;15.27;;;7.70;99.90;;;;;;5008876;28;20178;-61
2022/04/17 04:54:28;;;;;;;20.42;16.17;;;7.70;99.90;;;;;;5026883;28;20122;-61
2022/04/17 04:56:55;;;;;;;17.35;13.68;;;7.60;99.90;;;;;;5029759;28;20447;-61
2022/04/17 04:59:22;;;;;;;20.38;15.50;;;7.60;99.90;;;;;;5014882;28;20167;-61
2022/04/17 05:01:49;;;;;;;15.82;13.93;;;7.60;99.90;;;;;;5028354;28;20180;-61
2022/04/17 05:04:17;;;;;;;19.40;15.43;;;7.60;99.90;;;;;;5022387;28;20073;-61
2022/04/17 05:06:45;;;;;;;18.95;15.48;;;7.60;99.90;;;;;;5022545;28;20055;-61
2022/04/17 05:09:12;;;;;;;18.50;15.27;;;7.60;99.90;;;;;;5028014;28;20072;-60
2022/04/17 05:11:39;;;;;;;20.92;16.23;;;7.60;99.90;;;;;;5026433;28;20079;-61
2022/04/17 05:14:06;;;;;;;20.02;16.17;;;7.70;99.90;;;;;;5025927;28;20073;-63
2022/04/17 05:16:33;;;;;;;18.98;15.35;;;7.60;99.90;;;;;;5024314;28;20065;-61
2022/04/17 05:19:19;;;;;;;17.13;15.10;;;7.70;99.90;;;;;;5027889;28;20139;-61
2022/04/17 05:21:47;;;;;;;17.90;14.35;;;7.70;99.90;;;;;;5031626;28;20194;-61
2022/04/17 05:24:14;;;;;;;18.75;15.57;;;7.70;99.90;;;;;;5033911;28;20045;-63
2022/04/17 05:26:41;;;;;;;17.17;13.68;;;7.70;99.90;;;;;;5022107;28;20079;-60
2022/04/17 05:29:08;;;;;;;20.88;15.13;;;7.70;99.90;;;;;;5025356;28;20127;-60
2022/04/17 05:31:35;;;;;;;19.27;15.23;;;7.70;99.90;;;;;;5023491;28;20636;-60
2022/04/17 05:34:02;;;;;;;18.80;14.95;;;7.70;99.90;;;;;;5027302;28;20049;-61
2022/04/17 05:36:28;;;;;;;17.30;14.40;;;7.70;99.90;;;;;;5025041;28;20046;-60
2022/04/17 05:38:56;;;;;;;17.05;14.35;;;7.80;99.90;;;;;;5026164;28;20156;-62
2022/04/17 05:41:23;;;;;;;19.23;16.02;;;7.90;99.90;;;;;;5026342;28;20055;-60
2022/04/17 05:43:49;;;;;;;18.33;14.65;;;7.90;99.90;;;;;;5025529;28;20127;-60
2022/04/17 05:46:16;;;;;;;19.58;15.82;;;7.90;99.90;;;;;;5026030;28;20136;-60
2022/04/17 05:48:43;;;;;;;18.90;15.27;;;8.00;99.90;;;;;;5032260;28;20080;-60
2022/04/17 05:51:10;;;;;;;16.58;13.82;;;7.90;99.90;;;;;;5018347;28;20144;-61
2022/04/17 05:53:37;;;;;;;17.75;15.10;;;8.00;99.90;;;;;;5014750;28;20041;-61
2022/04/17 05:56:04;;;;;;;17.52;14.95;;;8.00;99.90;;;;;;5005341;28;20480;-60
2022/04/17 05:58:31;;;;;;;16.67;14.55;;;8.10;99.90;;;;;;5017494;28;20528;-60
2022/04/17 06:00:58;;;;;;;18.50;15.13;;;8.10;99.90;;;;;;5019071;28;20049;-60
2022/04/17 06:03:25;;;;;;;18.10;14.98;;;8.20;99.90;;;;;;5019802;28;20120;-60
2022/04/17 06:05:52;;;;;;;16.60;14.32;;;8.20;99.90;;;;;;5020171;28;20584;-59
2022/04/17 06:08:19;;;;;;;17.23;14.13;;;8.30;99.90;;;;;;5003030;28;20549;-60
2022/04/17 06:10:46;;;;;;;15.95;13.70;;;8.40;99.90;;;;;;5001382;28;20081;-60
2022/04/17 06:13:13;;;;;;;17.10;14.05;;;8.40;99.90;;;;;;5008662;28;20045;-62
2022/04/17 06:15:40;;;;;;;17.50;14.38;;;8.50;99.90;;;;;;5019249;28;20140;-60
2022/04/17 06:18:07;;;;;;;16.05;13.40;;;8.50;99.90;;;;;;5019886;28;20045;-60
2022/04/17 06:20:34;;;;;;;16.63;13.73;;;8.60;99.90;;;;;;5036769;28;20110;-60
2022/04/17 06:23:01;;;;;;;17.25;13.10;;;8.70;99.90;;;;;;5015952;28;20361;-60
2022/04/17 06:25:28;;;;;;;15.73;14.02;;;8.80;99.90;;;;;;5021668;28;20140;-60
2022/04/17 06:27:56;;;;;;;16.42;13.77;;;8.80;99.90;;;;;;5019022;28;20053;-60
2022/04/17 06:30:26;;;;;;;15.10;13.38;;;8.90;99.90;;;;;;5001112;28;20113;-60
2022/04/17 06:32:53;;;;;;;16.10;14.40;;;8.90;99.90;;;;;;5008526;28;20130;-60
2022/04/17 06:35:19;;;;;;;16.75;13.68;;;9.10;99.90;;;;;;5012664;28;20073;-60
2022/04/17 06:37:47;;;;;;;14.85;12.95;;;9.10;99.90;;;;;;5012931;28;20136;-60
2022/04/17 06:40:18;;;;;;;14.68;12.20;;;9.20;99.90;;;;;;5016383;28;20126;-60
2022/04/17 06:42:45;;;;;;;17.17;13.80;;;9.30;99.90;;;;;;5011846;28;20508;-59
2022/04/17 06:45:12;;;;;;;14.25;12.35;;;9.40;99.90;;;;;;5001161;28;20466;-60
2022/04/17 06:47:39;;;;;;;14.30;12.23;;;9.50;99.90;;;;;;5015511;28;20671;-60
2022/04/17 06:50:06;;;;;;;14.75;13.10;;;9.60;99.90;;;;;;5022487;28;20444;-60
2022/04/17 06:52:33;;;;;;;13.00;11.63;;;9.70;99.90;;;;;;5012900;28;20413;-60
2022/04/17 06:54:59;;;;;;;14.68;12.80;;;9.80;99.90;;;;;;5004912;28;20492;-60
2022/04/17 06:57:49;;;;;;;12.63;11.32;;;9.90;99.90;;;;;;5009634;28;20144;-61
2022/04/17 07:00:17;;;;;;;14.10;11.75;;;10.00;99.90;;;;;;5022372;28;20148;-60
2022/04/17 07:02:44;;;;;;;12.10;10.85;;;10.10;99.90;;;;;;5019048;28;20081;-61
2022/04/17 07:05:12;;;;;;;12.45;10.85;;;10.20;99.90;;;;;;5020089;28;20509;-60
2022/04/17 07:07:38;;;;;;;11.05;9.80;;;10.40;99.90;;;;;;4987251;28;20132;-59
2022/04/17 07:10:06;;;;;;;12.27;9.60;;;10.50;99.90;;;;;;5001945;28;20186;-60
2022/04/17 07:12:34;;;;;;;11.15;9.73;;;10.60;99.90;;;;;;5006505;28;20079;-60
2022/04/17 07:15:03;;;;;;;11.13;10.00;;;10.80;99.90;;;;;;5009773;28;20152;-60
2022/04/17 07:17:34;;;;;;;10.80;9.73;;;10.90;99.90;;;;;;5007994;28;20160;-61
2022/04/17 07:20:01;;;;;;;10.27;8.70;;;11.00;99.90;;;;;;5001648;28;20057;-60
2022/04/17 07:22:28;;;;;;;9.73;8.73;;;11.20;99.90;;;;;;5008130;28;20078;-60
2022/04/17 07:24:57;;;;;;;10.13;8.20;;;11.30;99.90;;;;;;5017729;28;20153;-60
2022/04/17 07:27:24;;;;;;;8.45;7.55;;;11.40;99.90;;;;;;5008899;28;20144;-60
2022/04/17 07:29:52;;;;;;;8.18;7.38;;;11.50;99.90;;;;;;5003916;28;20192;-60
2022/04/17 07:32:20;;;;;;;8.48;7.63;;;11.60;99.90;;;;;;5000201;28;20042;-60
2022/04/17 07:34:47;;;;;;;8.50;7.53;;;11.70;99.90;;;;;;5007941;28;20161;-60
2022/04/17 07:37:24;;;;;;;9.13;7.95;;;11.90;99.90;;;;;;5012936;28;20133;-61
2022/04/17 07:39:51;;;;;;;9.05;8.15;;;11.90;99.90;;;;;;5009825;28;20061;-60
2022/04/17 07:42:19;;;;;;;9.30;8.30;;;12.00;99.90;;;;;;5008107;28;20115;-61
2022/04/17 07:44:46;;;;;;;8.50;7.60;;;12.10;99.90;;;;;;5002877;28;20608;-61
2022/04/17 07:47:13;;;;;;;8.45;7.55;;;12.20;99.90;;;;;;5008283;28;20420;-59
2022/04/17 07:49:40;;;;;;;9.07;8.18;;;12.20;99.90;;;;;;5016223;28;20092;-60
2022/04/17 07:52:07;;;;;;;8.63;7.50;;;12.30;99.90;;;;;;5019258;28;20128;-60
2022/04/17 07:54:34;;;;;;;7.72;6.93;;;12.40;99.90;;;;;;5012482;28;20333;-59
2022/04/17 07:57:01;;;;;;;8.15;6.93;;;12.50;99.90;;;;;;5015972;28;20052;-60
2022/04/17 07:59:28;;;;;;;8.32;7.45;;;12.60;99.90;;;;;;5022560;28;20055;-60
2022/04/17 08:02:28;;;;;;;8.48;6.75;;;12.70;99.90;;;;;;5027710;28;20139;-60
2022/04/17 08:04:55;;;;;;;6.45;5.65;;;12.80;99.90;;;;;;5029823;28;20060;-59
2022/04/17 08:07:22;;;;;;;7.57;6.82;;;13.00;99.90;;;;;;5031172;28;20080;-60
2022/04/17 08:09:49;;;;;;;6.72;6.03;;;13.10;99.90;;;;;;5019069;28;20107;-60
2022/04/17 08:12:20;;;;;;;7.32;6.43;;;13.20;99.90;;;;;;5022122;28;20346;-60
2022/04/17 08:14:47;;;;;;;6.18;5.53;;;13.30;99.90;;;;;;5025019;28;20115;-60
2022/04/17 08:17:14;;;;;;;5.85;5.22;;;13.40;99.90;;;;;;5016734;28;20127;-59
2022/04/17 08:19:40;;;;;;;5.10;4.55;;;13.50;99.90;;;;;;5020108;28;20136;-59
2022/04/17 08:22:07;;;;;;;5.15;4.60;;;13.60;99.90;;;;;;5007376;28;20050;-60
2022/04/17 08:24:34;;;;;;;5.03;4.53;;;13.70;99.90;;;;;;5013524;28;20133;-60
2022/04/17 08:27:01;;;;;;;4.88;4.15;;;13.80;99.90;;;;;;5012334;28;20085;-59
2022/04/17 08:29:27;;;;;;;4.18;3.67;;;13.80;99.90;;;;;;5007030;28;20077;-60
2022/04/17 08:31:54;;;;;;;5.07;3.80;;;13.90;99.90;;;;;;5025378;28;20753;-60
2022/04/17 08:34:21;;;;;;;4.70;4.07;;;14.00;99.90;;;;;;5018002;28;20049;-60
2022/04/17 08:36:49;;;;;;;3.88;3.33;;;14.20;99.90;;;;;;5015298;28;20048;-60
2022/04/17 08:39:16;;;;;;;3.22;2.92;;;14.20;99.90;;;;;;5006033;28;20096;-60
2022/04/17 08:41:44;;;;;;;4.15;3.30;;;14.30;99.90;;;;;;5010717;28;20169;-60
2022/04/17 08:44:11;;;;;;;4.72;3.00;;;14.40;99.90;;;;;;5013815;28;20092;-60
2022/04/17 08:46:38;;;;;;;5.13;3.63;;;14.50;99.90;;;;;;5032179;28;20045;-60
2022/04/17 08:49:06;;;;;;;4.10;3.25;;;14.60;99.90;;;;;;5034057;28;20045;-60
2022/04/17 08:51:33;;;;;;;3.45;3.10;;;14.60;99.90;;;;;;5027444;28;20128;-60
2022/04/17 08:53:59;;;;;;;3.00;2.70;;;14.70;99.90;;;;;;5021305;28;20168;-60
2022/04/17 08:56:26;;;;;;;4.00;2.40;;;14.70;99.90;;;;;;5022588;28;20084;-60
2022/04/17 08:58:53;;;;;;;4.15;3.10;;;14.70;99.90;;;;;;5036565;28;20480;-61
2022/04/17 09:01:20;;;;;;;3.75;2.90;;;14.70;99.90;;;;;;5023521;28;20127;-60
2022/04/17 09:03:47;;;;;;;3.30;2.67;;;14.80;99.90;;;;;;5027680;28;20041;-61
2022/04/17 09:06:20;;;;;;;3.85;2.63;;;14.80;99.90;;;;;;5029934;28;20306;-60
2022/04/17 09:08:57;;;;;;;;;;;14.90;99.90;;;;;;5036325;28;20127;-60
2022/04/17 09:11:30;;;;;;;3.28;2.38;;;15.00;99.90;;;;;;5027688;28;20015;-60
2022/04/17 09:13:58;;;;;;;3.25;2.75;;;15.10;99.90;;;;;;5015751;28;20415;-64
2022/04/17 09:16:30;;;;;;;3.22;2.38;;;15.20;99.90;;;;;;5015143;28;20081;-60
2022/04/17 09:18:57;;;;;;;2.55;2.30;;;15.30;99.90;;;;;;5023205;28;20049;-60
2022/04/17 09:21:33;;;;;;;2.90;2.60;;;15.30;99.90;;;;;;5022569;28;20042;-61
2022/04/17 09:24:20;;;;;;;2.40;2.10;;;15.40;99.90;;;;;;5018160;28;20096;-60
2022/04/17 09:26:57;;;;;;;2.47;1.77;;;15.50;99.90;;;;;;5008049;28;20557;-60
2022/04/17 09:29:26;;;;;;;2.80;2.45;;;15.60;99.90;;;;;;5023897;28;20049;-60
2022/04/17 09:31:59;;;;;;;2.60;2.40;;;15.70;99.90;;;;;;5029599;28;20404;-60
2022/04/17 09:34:27;;;;;;;3.08;2.40;;;15.70;99.90;;;;;;5031598;28;20051;-60
2022/04/17 09:36:58;;;;;;;3.00;2.08;;;15.70;99.90;;;;;;5032415;28;20594;-60
2022/04/17 09:39:34;;;;;;;2.90;2.40;;;15.80;99.70;;;;;;5018856;28;20118;-60
2022/04/17 09:42:05;;;;;;;2.63;2.15;;;16.00;99.80;;;;;;5022131;28;20075;-60
2022/04/17 09:44:35;;;;;;;2.45;1.95;;;16.10;99.80;;;;;;5022745;28;20531;-60
2022/04/17 09:47:06;;;;;;;2.58;2.05;;;16.20;99.70;;;;;;5021925;28;20080;-60
2022/04/17 09:49:58;;;;;;;2.17;1.90;;;16.20;99.00;;;;;;5022200;28;20050;-60
2022/04/17 09:52:31;;;;;;;2.13;1.83;;;16.30;99.30;;;;;;5022934;28;20612;-60
2022/04/17 09:55:02;;;;;;;2.50;2.03;;;16.50;99.90;;;;;;5027073;28;20187;-60
2022/04/17 09:57:33;;;;;;;2.58;1.98;;;16.60;98.40;;;;;;5016175;28;20153;-60
2022/04/17 10:00:10;;;;;;;2.53;2.30;;;16.60;98.60;;;;;;5019823;28;20089;-60
2022/04/17 10:02:38;;;;;;;2.60;2.17;;;16.80;98.60;;;;;;5023006;28;20099;-60
2022/04/17 10:05:09;;;;;;;2.75;2.25;;;16.80;98.50;;;;;;5028461;28;20184;-61
2022/04/17 10:07:38;;;;;;;2.00;1.67;;;16.90;98.40;;;;;;5024389;28;20049;-60
2022/04/17 10:10:05;;;;;;;2.95;1.77;;;17.00;97.80;;;;;;5018627;28;20088;-60
2022/04/17 10:12:44;;;;;;;2.45;2.00;;;17.10;97.80;;;;;;5021423;28;21381;-60
2022/04/17 10:15:11;;;;;;;2.80;2.00;;;17.20;96.90;;;;;;5026544;28;20172;-60
2022/04/17 10:17:39;;;;;;;2.40;1.83;;;17.20;97.50;;;;;;5023788;28;20140;-60
2022/04/17 10:20:09;;;;;;;3.13;1.88;;;17.40;97.40;;;;;;5023395;28;20144;-60
2022/04/17 10:22:37;;;;;;;2.25;1.90;;;17.50;97.40;;;;;;5024773;28;20140;-60
2022/04/17 10:25:05;;;;;;;3.03;2.00;;;17.60;97.20;;;;;;5031652;28;20076;-61
2022/04/17 10:27:57;;;;;;;2.38;1.60;;;17.70;95.90;;;;;;5025174;28;20251;-60
2022/04/17 10:30:25;;;;;;;2.00;1.70;;;17.90;95.80;;;;;;5021246;28;20165;-60
2022/04/17 10:33:10;;;;;;;2.47;1.92;;;17.90;95.70;;;;;;5019300;28;20231;-60
2022/04/17 10:35:49;;;;;;;1.77;1.55;;;18.00;96.00;;;;;;5024131;28;20284;-61
2022/04/17 10:38:24;;;;;;;2.17;1.85;;;18.10;93.80;;;;;;5013867;28;20146;-61
2022/04/17 10:40:55;;;;;;;2.28;1.60;;;18.20;93.80;;;;;;5028590;28;20314;-61
2022/04/17 10:43:22;;;;;;;1.90;1.30;;;18.40;94.30;;;;;;5020651;28;20129;-60
2022/04/17 10:46:21;;;;;;;1.80;1.40;;;18.40;92.40;;;;;;5021997;28;20077;-60
2022/04/17 10:48:49;;;;;;;1.38;1.13;;;18.60;94.40;;;;;;5015571;28;20049;-61
2022/04/17 10:51:22;;;;;;;1.60;1.30;;;18.70;91.80;;;;;;5025781;28;20135;-61
2022/04/17 10:54:10;;;;;;;1.90;1.48;;;18.80;92.80;;;;;;5019345;28;20437;-61
2022/04/17 10:56:38;;;;;;;1.92;1.58;;;18.80;91.70;;;;;;5028297;28;20050;-60
2022/04/17 10:59:15;;;;;;;2.20;1.50;;;18.80;91.90;;;;;;5024894;28;20140;-61
2022/04/17 11:01:45;;;;;;;2.70;2.10;;;18.90;92.40;;;;;;5021152;28;20142;-61
2022/04/17 11:04:53;;;;;;;3.40;2.72;;;19.00;91.50;;;;;;5009979;28;20088;-61
2022/04/17 11:07:30;;;;;;;3.17;2.75;;;19.10;91.00;;;;;;5010644;28;20820;-60
2022/04/17 11:10:25;;;;;;;2.72;2.42;;;19.10;91.10;;;;;;5022644;28;20450;-61
2022/04/17 11:12:54;;;;;;;2.78;2.40;;;19.20;90.40;;;;;;5027829;28;20045;-61
2022/04/17 11:15:22;;;;;;;2.97;2.55;;;19.40;91.20;;;;;;5015112;28;20069;-60
2022/04/17 11:17:54;;;;;;;;;;;19.40;87.10;;;;;;5021639;28;20126;-61
2022/04/17 11:20:21;;;;;;;2.47;2.10;;;19.40;90.10;;;;;;5032206;28;20027;-60
2022/04/17 11:22:48;;;;;;;2.25;1.73;;;19.50;87.00;;;;;;5012262;28;20068;-61
2022/04/17 11:25:15;;;;;;;2.10;1.33;;;19.60;85.80;;;;;;5025179;28;20064;-61
2022/04/17 11:27:48;;;;;;;2.40;1.40;;;19.80;82.20;;;;;;5022318;28;20144;-61
2022/04/17 11:30:35;;;;;;;1.63;1.20;;;20.00;83.00;;;;;;5031472;28;20049;-60
2022/04/17 11:33:02;;;;;;;3.40;1.80;;;20.30;83.70;;;;;;5025743;28;20045;-61
2022/04/17 11:35:30;;;;;;;1.60;1.23;;;20.40;82.00;;;;;;5025405;28;20137;-61
2022/04/17 11:38:06;;;;;;;1.27;1.10;;;20.50;81.30;;;;;;5026153;28;20045;-61
2022/04/17 11:40:37;;;;;;;1.60;1.15;;;20.80;79.60;;;;;;5021472;28;20516;-61
2022/04/17 11:43:11;;;;;;;1.15;0.98;;;21.10;76.70;;;;;;5008446;28;20141;-61
2022/04/17 11:45:38;;;;;;;1.17;0.88;;;21.30;77.40;;;;;;5008273;28;20397;-61
2022/04/17 11:48:10;;;;;;;0.88;0.85;;;21.40;73.70;;;;;;5013855;28;20146;-61
2022/04/17 11:50:37;;;;;;;1.20;1.00;;;21.70;77.90;;;;;;4999813;28;20561;-60
2022/04/17 11:53:13;;;;;;;2.00;1.30;;;21.90;74.40;;;;;;5005015;28;20049;-61
2022/04/17 11:55:41;;;;;;;1.83;1.40;;;22.00;71.50;;;;;;5013104;28;20352;-61
2022/04/17 11:58:22;;;;;;;2.40;1.67;;;21.90;72.20;;;;;;4996649;28;20146;-61
2022/04/17 12:00:59;;;;;;;3.42;2.13;;;21.90;70.30;;;;;;5003856;28;20221;-61
2022/04/17 12:03:39;;;;;;;2.13;1.52;;;21.90;69.40;;;;;;5010494;28;20054;-60
2022/04/17 12:06:07;;;;;;;1.55;1.15;;;21.90;69.20;;;;;;4998288;28;20057;-61
2022/04/17 12:08:37;;;;;;;1.40;1.00;;;22.10;69.60;;;;;;5010264;28;20171;-61
2022/04/17 12:11:05;;;;;;;1.00;0.90;;;22.30;67.00;;;;;;4998793;28;20085;-61
2022/04/17 12:13:32;;;;;;;0.98;0.80;;;22.50;65.90;;;;;;5002855;28;20131;-61
2022/04/17 12:16:04;;;;;;;0.80;0.73;;;22.70;64.70;;;;;;5017517;28;20179;-61
2022/04/17 12:18:31;;;;;;;;;;;23.00;62.70;;;;;;5019554;28;20129;-61
2022/04/17 12:21:06;;;;;;;1.27;0.98;;;23.10;62.60;;;;;;5018537;28;20184;-61
2022/04/17 12:23:33;;;;;;;0.90;0.70;;;23.20;61.30;;;;;;5019913;28;20083;-61
2022/04/17 12:26:02;;;;;;;1.15;0.77;;;23.40;62.40;;;;;;5011028;28;20212;-61
2022/04/17 12:28:29;;;;;;;1.23;0.90;;;23.40;63.60;;;;;;5018183;28;20128;-61
2022/04/17 12:30:55;;;;;;;1.25;1.05;;;23.50;63.40;;;;;;5018197;28;20089;-61
2022/04/17 12:33:29;;;;;;;1.23;0.90;;;23.70;62.40;;;;;;5015684;28;20053;-61
2022/04/17 12:36:09;;;;;;;1.45;1.08;;;23.90;64.40;;;;;;5009545;28;20058;-61
2022/04/17 12:38:37;;;;;;;1.67;1.20;;;24.10;63.50;;;;;;5017396;28;20053;-61
2022/04/17 12:41:19;;;;;;;1.98;1.65;;;24.10;61.90;;;;;;5003169;28;20095;-61
2022/04/17 12:43:48;;;;;;;;;;;24.10;62.50;;;;;;5006569;28;20045;-62
2022/04/17 12:46:32;;;;;;;1.15;0.98;;;24.30;60.10;;;;;;5010856;28;20441;-61
2022/04/17 12:49:05;;;;;;;1.30;1.00;;;24.30;59.60;;;;;;5013113;28;20042;-61
2022/04/17 12:51:32;;;;;;;1.05;0.90;;;24.30;58.70;;;;;;4997626;28;20152;-61
2022/04/17 12:53:59;;;;;;;1.40;1.02;;;24.20;59.00;;;;;;5003085;28;20482;-61
2022/04/17 12:56:26;;;;;;;1.52;0.98;;;24.40;58.30;;;;;;5001099;28;20152;-61
2022/04/17 12:59:02;;;;;;;1.63;1.13;;;24.50;59.00;;;;;;5012988;28;20120;-61
2022/04/17 13:01:30;;;;;;;1.02;0.73;;;24.80;58.50;;;;;;4999455;28;20316;-61